Time;durP1;ratioP1;P1;durP2;ratioP2;P2;SDS_P1;SDS_P2;PMS_P1;PMS_P2;Temp;Humidity;BMP_temperature;BMP_pressure;BME280_temperature;BME280_humidity;BME280_pressure;Samples;Min_cycle;Max_cycle;Signal;HPM_P1;HPM_P2
2021/11/22 00:01:21;;;;;;;74.80;50.20;;;;;;;6.12;95.39;98550.39;102279;1310;70553;-69
2021/11/22 00:03:47;;;;;;;75.20;49.40;;;;;;;6.11;95.50;98550.61;102363;1310;73767;-69
2021/11/22 00:06:14;;;;;;;74.30;50.50;;;;;;;6.10;95.46;98553.64;102325;1310;61387;-69
2021/11/22 00:08:41;;;;;;;78.40;49.30;;;;;;;6.09;95.51;98558.15;102042;1313;61286;-69
2021/11/22 00:11:08;;;;;;;77.80;50.20;;;;;;;6.06;95.47;98563.95;102301;1311;76832;-69
2021/11/22 00:13:35;;;;;;;78.00;50.20;;;;;;;6.04;95.48;98562.46;102322;1310;70476;-69
2021/11/22 00:16:02;;;;;;;83.50;55.30;;;;;;;6.02;95.60;98565.20;102302;1310;73193;-69
2021/11/22 00:18:29;;;;;;;80.30;54.30;;;;;;;6.00;95.57;98569.71;102089;1313;61336;-69
2021/11/22 00:20:56;;;;;;;77.70;52.60;;;;;;;6.00;95.63;98569.91;102274;1311;61312;-70
2021/11/22 00:23:23;;;;;;;79.90;55.10;;;;;;;5.98;95.58;98571.42;102293;1310;76443;-70
2021/11/22 00:25:50;;;;;;;84.10;55.30;;;;;;;5.97;95.64;98573.77;102288;1310;69783;-70
2021/11/22 00:28:16;;;;;;;81.30;58.30;;;;;;;5.96;95.69;98575.41;102281;1310;73481;-70
2021/11/22 00:30:43;;;;;;;87.70;57.10;;;;;;;5.96;95.73;98580.91;102255;1310;61357;-70
2021/11/22 00:33:10;;;;;;;80.80;54.30;;;;;;;5.95;95.79;98582.18;102294;1310;61240;-69
2021/11/22 00:35:38;;;;;;;81.80;56.50;;;;;;;5.95;95.81;98583.40;102299;1311;76494;-69
2021/11/22 00:38:07;;;;;;;87.40;54.90;;;;;;;5.96;95.86;98588.68;102344;1313;70438;-69
2021/11/22 00:40:35;;;;;;;85.70;57.80;;;;;;;5.96;95.84;98590.62;102423;1311;74682;-69
2021/11/22 00:43:04;;;;;;;80.60;53.70;;;;;;;5.97;95.99;98588.09;102448;1310;61749;-69
2021/11/22 00:45:31;;;;;;;81.00;52.50;;;;;;;5.98;96.01;98590.31;102467;1312;61301;-69
2021/11/22 00:47:59;;;;;;;77.20;53.20;;;;;;;5.98;95.98;98592.23;102503;1310;74865;-69
2021/11/22 00:50:28;;;;;;;82.50;53.20;;;;;;;5.98;95.96;98597.19;102457;1310;70479;-69
2021/11/22 00:52:55;;;;;;;86.60;57.60;;;;;;;5.97;96.04;98597.39;102397;1310;74158;-69
2021/11/22 00:55:22;;;;;;;82.90;54.50;;;;;;;5.96;96.05;98595.19;102000;1313;61529;-70
2021/11/22 00:57:49;;;;;;;77.60;53.20;;;;;;;5.93;96.10;98595.64;102395;1310;61384;-70
2021/11/22 01:00:18;;;;;;;79.10;52.40;;;;;;;5.91;96.11;98597.85;102346;1311;75151;-69
2021/11/22 01:02:45;;;;;;;76.50;50.60;;;;;;;5.89;96.20;98595.17;102251;1310;70427;-69
2021/11/22 01:05:12;;;;;;;78.50;50.90;;;;;;;5.84;96.13;98591.73;102284;1314;74522;-69
2021/11/22 01:07:40;;;;;;;80.60;51.60;;;;;;;5.80;96.25;98592.32;102276;1314;61441;-69
2021/11/22 01:10:08;;;;;;;75.40;50.00;;;;;;;5.76;96.43;98587.96;102292;1310;61415;-69
2021/11/22 01:12:35;;;;;;;79.30;51.90;;;;;;;5.70;96.41;98585.03;102325;1310;76502;-69
2021/11/22 01:15:09;;;;;;;78.10;52.40;;;;;;;5.67;96.57;98586.84;101963;1318;69047;-69
2021/11/22 01:17:37;;;;;;;81.60;54.00;;;;;;;5.61;96.63;98592.75;102295;1314;74537;-68
2021/11/22 01:20:07;;;;;;;79.10;50.70;;;;;;;5.56;96.68;98590.23;102201;1309;61419;-69
2021/11/22 01:22:33;;;;;;;79.60;50.70;;;;;;;5.49;96.80;98585.98;101968;1317;61491;-69
2021/11/22 01:25:00;;;;;;;83.30;54.60;;;;;;;5.45;96.84;98587.11;102320;1310;75780;-70
2021/11/22 01:27:27;;;;;;;85.60;54.70;;;;;;;5.41;96.93;98589.27;102307;1310;71288;-70
2021/11/22 01:29:53;;;;;;;88.50;55.60;;;;;;;5.38;97.05;98588.56;102271;1310;73480;-70
2021/11/22 01:32:20;;;;;;;83.40;53.10;;;;;;;5.34;97.14;98594.92;101744;1314;61389;-68
2021/11/22 01:34:47;;;;;;;81.40;54.00;;;;;;;5.28;97.21;98594.31;102327;1311;61260;-70
2021/11/22 01:37:14;;;;;;;82.80;54.90;;;;;;;5.22;97.34;98600.42;102270;1310;74972;-70
2021/11/22 01:39:41;;;;;;;85.30;56.50;;;;;;;5.17;97.43;98601.59;102305;1311;69689;-69
2021/11/22 01:42:08;;;;;;;90.40;62.70;;;;;;;5.14;97.57;98601.39;102276;1310;74517;-70
2021/11/22 01:44:34;;;;;;;92.50;64.50;;;;;;;5.13;97.67;98599.14;102024;1310;61509;-70
2021/11/22 01:47:01;;;;;;;88.80;59.00;;;;;;;5.12;97.71;98599.36;102323;1310;62391;-70
2021/11/22 01:49:28;;;;;;;81.20;58.60;;;;;;;5.12;97.74;98603.42;102270;1316;77044;-70
2021/11/22 01:51:54;;;;;;;82.70;56.80;;;;;;;5.12;97.80;98606.96;102278;1318;69103;-70
2021/11/22 01:54:21;;;;;;;82.80;55.00;;;;;;;5.13;97.86;98617.14;102269;1310;73483;-70
2021/11/22 01:56:48;;;;;;;81.10;53.90;;;;;;;5.13;97.88;98620.99;102265;1310;61326;-69
2021/11/22 01:59:18;;;;;;;78.10;52.60;;;;;;;5.14;97.92;98617.80;102209;1310;61323;-69
2021/11/22 02:01:45;;;;;;;;;;;;;;;5.15;98.04;98612.64;102153;1313;76966;-69
2021/11/22 02:04:12;;;;;;;87.80;54.10;;;;;;;5.15;98.10;98608.56;102081;1310;70435;-69
2021/11/22 02:06:39;;;;;;;95.70;62.80;;;;;;;5.16;98.16;98608.55;102060;1311;74012;-70
2021/11/22 02:09:07;;;;;;;97.30;65.60;;;;;;;5.17;98.23;98620.45;102307;1310;61679;-69
2021/11/22 02:11:35;;;;;;;95.20;63.80;;;;;;;5.19;98.35;98618.74;102357;1314;61805;-70
2021/11/22 02:14:03;;;;;;;86.60;55.70;;;;;;;5.20;98.30;98618.52;102401;1310;76432;-70
2021/11/22 02:16:30;;;;;;;89.40;57.30;;;;;;;5.19;98.35;98622.64;102423;1311;70837;-69
2021/11/22 02:18:56;;;;;;;88.70;54.80;;;;;;;5.19;98.41;98630.05;102494;1310;73655;-70
2021/11/22 02:21:23;;;;;;;83.30;58.00;;;;;;;5.20;98.50;98634.90;102368;1310;61325;-70
2021/11/22 02:23:50;;;;;;;85.40;56.50;;;;;;;5.21;98.55;98635.73;102297;1310;61389;-69
2021/11/22 02:26:16;;;;;;;86.80;56.10;;;;;;;5.24;98.55;98634.54;102299;1311;75506;-69
2021/11/22 02:28:43;;;;;;;88.30;58.80;;;;;;;5.25;98.57;98635.52;101923;1314;69929;-69
2021/11/22 02:31:10;;;;;;;84.00;56.10;;;;;;;5.27;98.53;98640.16;102299;1310;74446;-68
2021/11/22 02:33:37;;;;;;;82.30;57.80;;;;;;;5.30;98.60;98641.65;102137;1316;61310;-68
2021/11/22 02:36:03;;;;;;;87.50;58.60;;;;;;;5.30;98.61;98643.89;102077;1310;61232;-68
2021/11/22 02:38:34;;;;;;;85.80;60.80;;;;;;;5.32;98.62;98648.05;102150;1313;75398;-70
2021/11/22 02:41:01;;;;;;;;;;;;;;;5.33;98.64;98647.30;102259;1314;70515;-70
2021/11/22 02:43:30;;;;;;;83.30;56.40;;;;;;;5.34;98.62;98644.23;102286;1310;71502;-69
2021/11/22 02:45:57;;;;;;;84.10;57.90;;;;;;;5.35;98.63;98644.38;102284;1309;61386;-69
2021/11/22 02:48:24;;;;;;;79.10;55.10;;;;;;;5.35;98.60;98642.60;102395;1314;61613;-69
2021/11/22 02:50:51;;;;;;;85.00;55.90;;;;;;;5.36;98.64;98643.98;102382;1310;75488;-69
2021/11/22 02:53:18;;;;;;;81.90;55.10;;;;;;;5.37;98.69;98643.90;102284;1310;70549;-69
2021/11/22 02:55:45;;;;;;;85.70;56.00;;;;;;;5.37;98.66;98644.77;102301;1314;73475;-69
2021/11/22 02:58:12;;;;;;;82.00;55.80;;;;;;;5.37;98.67;98647.23;102300;1310;61332;-69
2021/11/22 03:00:39;;;;;;;82.10;55.70;;;;;;;5.37;98.70;98646.54;102321;1310;61219;-69
2021/11/22 03:03:06;;;;;;;81.70;57.30;;;;;;;5.38;98.73;98644.40;102348;1310;75290;-69
2021/11/22 03:05:32;;;;;;;80.70;56.20;;;;;;;5.38;98.76;98641.23;102277;1311;69414;-69
2021/11/22 03:08:00;;;;;;;88.50;60.00;;;;;;;5.38;98.77;98645.27;102287;1310;74442;-69
2021/11/22 03:10:28;;;;;;;83.50;59.50;;;;;;;5.38;98.78;98645.80;102360;1311;61386;-69
2021/11/22 03:12:57;;;;;;;80.90;55.00;;;;;;;5.37;98.78;98651.81;102351;1310;61307;-69
2021/11/22 03:15:24;;;;;;;79.90;54.00;;;;;;;5.37;98.83;98649.18;102032;1314;76512;-70
2021/11/22 03:17:51;;;;;;;76.80;53.50;;;;;;;5.36;98.84;98652.77;102443;1309;69503;-71
2021/11/22 03:20:20;;;;;;;82.20;55.00;;;;;;;5.34;98.83;98653.21;102297;1311;74643;-69
2021/11/22 03:22:49;;;;;;;79.50;55.30;;;;;;;5.32;98.92;98654.90;102397;1310;61332;-70
2021/11/22 03:25:17;;;;;;;100.10;60.90;;;;;;;5.30;98.95;98657.84;102413;1310;62256;-69
2021/11/22 03:27:45;;;;;;;100.30;62.50;;;;;;;5.28;98.93;98663.01;102308;1310;76472;-69
2021/11/22 03:30:13;;;;;;;80.90;54.70;;;;;;;5.27;99.01;98660.25;102325;1313;70537;-70
2021/11/22 03:32:41;;;;;;;87.20;59.20;;;;;;;5.24;99.06;98654.08;102100;1314;71511;-69
2021/11/22 03:35:08;;;;;;;82.00;56.60;;;;;;;5.22;99.18;98660.52;102131;1309;61438;-69
2021/11/22 03:37:35;;;;;;;78.00;52.50;;;;;;;5.20;99.22;98667.83;102370;1310;61301;-69
2021/11/22 03:40:03;;;;;;;77.70;52.80;;;;;;;5.17;99.25;98675.39;101863;1313;74948;-69
2021/11/22 03:42:38;;;;;;;77.00;52.20;;;;;;;5.15;99.44;98676.38;102123;1310;69590;-69
2021/11/22 03:45:08;;;;;;;75.60;51.10;;;;;;;5.12;99.44;98671.23;102297;1310;73278;-69
2021/11/22 03:47:35;;;;;;;78.10;54.80;;;;;;;5.11;99.48;98680.61;102362;1308;61610;-70
2021/11/22 03:50:04;;;;;;;78.70;53.60;;;;;;;5.10;99.60;98680.30;102288;1310;61311;-70
2021/11/22 03:52:30;;;;;;;77.90;53.50;;;;;;;5.12;99.64;98677.41;102079;1313;76416;-70
2021/11/22 03:54:57;;;;;;;80.20;55.00;;;;;;;5.13;99.67;98681.05;102338;1311;69622;-70
2021/11/22 03:57:26;;;;;;;84.90;58.10;;;;;;;5.13;99.72;98679.45;102291;1317;73551;-70
2021/11/22 03:59:56;;;;;;;84.20;58.70;;;;;;;5.13;99.73;98674.84;102277;1311;61288;-69
2021/11/22 04:02:23;;;;;;;89.30;60.60;;;;;;;5.11;99.65;98672.69;102317;1316;61330;-69
2021/11/22 04:04:50;;;;;;;84.20;60.40;;;;;;;5.10;99.61;98680.86;102304;1311;76746;-69
2021/11/22 04:07:16;;;;;;;85.60;61.10;;;;;;;5.10;99.72;98694.06;102272;1310;70485;-68
2021/11/22 04:09:43;;;;;;;86.60;62.30;;;;;;;5.10;99.83;98700.90;102038;1309;74325;-68
2021/11/22 04:12:10;;;;;;;96.40;65.50;;;;;;;5.10;99.85;98694.94;102021;1311;61424;-69
2021/11/22 04:14:37;;;;;;;103.30;74.10;;;;;;;5.11;99.88;98694.89;102086;1310;61294;-69
2021/11/22 04:17:03;;;;;;;99.40;74.50;;;;;;;5.11;99.86;98697.19;102070;1310;75491;-69
2021/11/22 04:19:30;;;;;;;99.40;71.50;;;;;;;5.10;99.97;98702.13;101728;1313;67680;-69
2021/11/22 04:21:57;;;;;;;92.70;65.20;;;;;;;5.10;99.96;98714.14;102055;1310;74576;-69
2021/11/22 04:24:23;;;;;;;87.70;59.10;;;;;;;5.09;100.00;98715.23;102050;1310;61329;-71
2021/11/22 04:26:50;;;;;;;84.10;60.00;;;;;;;5.08;100.00;98714.02;102269;1313;62613;-69
2021/11/22 04:29:16;;;;;;;88.90;58.50;;;;;;;5.08;100.00;98711.91;102284;1314;75602;-70
2021/11/22 04:31:44;;;;;;;94.00;66.80;;;;;;;5.10;100.00;98708.16;102355;1310;70517;-68
2021/11/22 04:34:10;;;;;;;96.00;65.00;;;;;;;5.11;100.00;98704.76;102063;1310;74504;-70
2021/11/22 04:36:37;;;;;;;123.60;84.10;;;;;;;5.13;100.00;98700.59;102156;1310;61304;-69
2021/11/22 04:39:04;;;;;;;97.40;66.00;;;;;;;5.15;100.00;98700.50;102156;1310;61360;-70
2021/11/22 04:41:30;;;;;;;93.30;65.50;;;;;;;5.15;100.00;98707.70;102248;1317;259321;-69
2021/11/22 04:43:57;;;;;;;91.30;66.30;;;;;;;5.17;100.00;98710.64;102329;1310;69999;-69
2021/11/22 04:46:24;;;;;;;92.60;67.20;;;;;;;5.17;100.00;98719.73;102432;1313;73793;-69
2021/11/22 04:48:50;;;;;;;91.00;63.20;;;;;;;5.18;100.00;98722.35;102457;1310;61297;-70
2021/11/22 04:51:17;;;;;;;85.60;58.90;;;;;;;5.19;100.00;98726.20;102294;1310;61205;-70
2021/11/22 04:53:43;;;;;;;86.10;57.00;;;;;;;5.20;100.00;98731.61;102321;1310;76408;-70
2021/11/22 04:56:10;;;;;;;81.30;55.90;;;;;;;5.21;100.00;98735.58;102306;1310;69483;-70
2021/11/22 04:58:37;;;;;;;81.80;54.10;;;;;;;5.23;100.00;98735.34;102292;1311;73588;-70
2021/11/22 05:01:03;;;;;;;80.40;56.00;;;;;;;5.23;100.00;98732.50;102292;1311;61390;-70
2021/11/22 05:03:30;;;;;;;80.10;54.40;;;;;;;5.24;100.00;98730.52;102354;1310;61401;-68
2021/11/22 05:05:57;;;;;;;86.10;58.30;;;;;;;5.25;100.00;98735.03;102297;1310;76442;-68
2021/11/22 05:08:23;;;;;;;75.90;52.90;;;;;;;5.26;100.00;98740.44;102192;1313;70404;-69
2021/11/22 05:10:50;;;;;;;79.40;54.50;;;;;;;5.27;100.00;98744.44;102086;1310;74523;-69
2021/11/22 05:13:19;;;;;;;80.60;52.90;;;;;;;5.28;100.00;98748.60;102040;1311;62101;-70
2021/11/22 05:15:49;;;;;;;73.90;50.50;;;;;;;5.31;100.00;98748.35;102180;1311;61300;-70
2021/11/22 05:18:15;;;;;;;79.50;53.20;;;;;;;5.32;100.00;98746.19;102136;1310;74864;-70
2021/11/22 05:20:43;;;;;;;76.60;51.60;;;;;;;5.32;100.00;98745.99;102315;1310;69526;-70
2021/11/22 05:23:12;;;;;;;78.20;52.60;;;;;;;5.32;100.00;98744.03;101948;1313;72887;-70
2021/11/22 05:25:40;;;;;;;72.90;48.70;;;;;;;5.34;100.00;98743.41;102116;1310;61288;-70
2021/11/22 05:28:07;;;;;;;73.90;49.20;;;;;;;5.35;100.00;98741.60;102275;1310;61516;-69
2021/11/22 05:30:34;;;;;;;71.10;47.10;;;;;;;5.36;100.00;98747.54;102066;1310;75552;-69
2021/11/22 05:33:03;;;;;;;72.80;46.90;;;;;;;5.36;100.00;98751.23;102081;1310;69591;-69
2021/11/22 05:35:30;;;;;;;69.30;48.00;;;;;;;5.37;100.00;98750.30;102038;1310;73635;-69
2021/11/22 05:37:57;;;;;;;76.50;50.40;;;;;;;5.38;100.00;98751.84;102085;1310;61327;-71
2021/11/22 05:40:25;;;;;;;73.70;51.50;;;;;;;5.39;100.00;98750.89;102304;1310;62291;-69
2021/11/22 05:42:53;;;;;;;73.60;52.90;;;;;;;5.40;100.00;98755.95;102279;1310;75088;-69
2021/11/22 05:45:20;;;;;;;79.40;52.00;;;;;;;5.43;100.00;98763.58;102343;1311;69658;-69
2021/11/22 05:47:48;;;;;;;69.50;47.30;;;;;;;5.45;100.00;98767.36;102373;1310;73472;-70
2021/11/22 05:50:16;;;;;;;71.00;47.70;;;;;;;5.46;100.00;98768.52;102126;1311;61389;-70
2021/11/22 05:52:49;;;;;;;65.70;47.30;;;;;;;5.46;100.00;98775.39;102575;1311;61244;-70
2021/11/22 05:55:23;;;;;;;69.30;45.60;;;;;;;5.46;100.00;98780.15;102374;1314;75788;-70
2021/11/22 05:57:50;;;;;;;67.30;44.40;;;;;;;5.45;100.00;98780.73;102460;1310;69929;-70
2021/11/22 06:00:17;;;;;;;66.60;45.10;;;;;;;5.45;100.00;98789.18;102433;1310;73006;-71
2021/11/22 06:02:43;;;;;;;64.00;42.80;;;;;;;5.45;100.00;98796.92;102510;1310;61224;-70
2021/11/22 06:05:10;;;;;;;63.90;44.40;;;;;;;5.45;100.00;98796.23;102364;1310;62211;-71
2021/11/22 06:07:39;;;;;;;62.30;44.10;;;;;;;5.46;100.00;98800.95;102300;1310;76485;-70
2021/11/22 06:10:07;;;;;;;66.70;45.70;;;;;;;5.46;100.00;98800.05;102321;1310;70855;-69
2021/11/22 06:12:33;;;;;;;72.10;47.90;;;;;;;5.47;100.00;98796.84;102328;1310;74463;-70
2021/11/22 06:15:00;;;;;;;74.70;51.30;;;;;;;5.47;100.00;98800.17;102305;1310;61221;-70
2021/11/22 06:17:27;;;;;;;72.20;49.20;;;;;;;5.48;100.00;98802.77;102382;1310;62192;-70
2021/11/22 06:19:54;;;;;;;69.60;48.70;;;;;;;5.50;100.00;98806.73;102316;1310;76631;-70
2021/11/22 06:22:21;;;;;;;75.10;51.60;;;;;;;5.50;100.00;98801.45;102320;1310;70556;-69
2021/11/22 06:24:48;;;;;;;74.00;53.60;;;;;;;5.52;100.00;98807.73;102218;1311;75077;-70
2021/11/22 06:27:16;;;;;;;77.80;54.60;;;;;;;5.51;100.00;98809.85;102282;1310;61333;-70
2021/11/22 06:29:43;;;;;;;78.80;54.20;;;;;;;5.53;100.00;98811.72;102306;1310;61258;-69
2021/11/22 06:32:11;;;;;;;75.40;52.10;;;;;;;5.54;100.00;98820.67;102336;1310;75952;-70
2021/11/22 06:34:41;;;;;;;74.20;50.40;;;;;;;5.54;100.00;98823.10;102477;1310;69749;-69
2021/11/22 06:37:09;;;;;;;76.70;51.60;;;;;;;5.57;100.00;98836.02;102336;1311;74824;-70
2021/11/22 06:39:38;;;;;;;78.70;53.40;;;;;;;5.58;100.00;98832.95;102422;1310;61316;-70
2021/11/22 06:42:08;;;;;;;75.60;54.70;;;;;;;5.60;100.00;98831.44;102334;1317;61218;-70
2021/11/22 06:44:35;;;;;;;76.60;51.90;;;;;;;5.62;100.00;98834.71;102308;1311;77239;-70
2021/11/22 06:47:03;;;;;;;74.30;52.90;;;;;;;5.64;100.00;98840.78;102387;1310;68783;-70
2021/11/22 06:49:29;;;;;;;76.70;49.50;;;;;;;5.66;100.00;98849.48;102410;1310;73421;-70
2021/11/22 06:51:57;;;;;;;74.70;49.80;;;;;;;5.67;100.00;98849.41;102285;1311;61378;-70
2021/11/22 06:54:23;;;;;;;71.90;48.40;;;;;;;5.70;100.00;98849.13;102269;1310;61335;-70
2021/11/22 06:56:50;;;;;;;70.40;47.10;;;;;;;5.72;100.00;98847.44;102315;1310;76818;-70
2021/11/22 06:59:17;;;;;;;73.10;48.20;;;;;;;5.74;100.00;98854.36;102335;1310;69272;-69
2021/11/22 07:01:44;;;;;;;75.70;47.80;;;;;;;5.77;100.00;98860.40;102365;1310;74826;-70
2021/11/22 07:04:10;;;;;;;75.00;48.30;;;;;;;5.78;100.00;98863.00;102097;1313;61324;-69
2021/11/22 07:06:37;;;;;;;73.70;47.20;;;;;;;5.79;100.00;98864.16;102319;1313;61298;-70
2021/11/22 07:09:05;;;;;;;73.70;47.60;;;;;;;5.80;100.00;98867.34;102109;1314;76492;-71
2021/11/22 07:15:18;;;;;;;76.80;47.60;;;;;;;5.82;100.00;98870.39;102409;1313;74179;-72
2021/11/22 07:17:45;;;;;;;77.20;47.30;;;;;;;5.83;100.00;98878.43;102506;1311;61419;-73
2021/11/22 07:20:12;;;;;;;79.50;49.40;;;;;;;5.85;100.00;98878.53;102348;1310;61397;-74
2021/11/22 07:22:38;;;;;;;79.20;49.30;;;;;;;5.86;100.00;98878.80;102100;1313;75984;-73
2021/11/22 07:25:05;;;;;;;75.70;48.00;;;;;;;5.89;100.00;98881.48;102314;1310;70833;-73
2021/11/22 07:27:32;;;;;;;77.60;48.00;;;;;;;5.93;100.00;98880.96;102374;1310;74823;-75
2021/11/22 07:29:59;;;;;;;75.80;46.80;;;;;;;5.96;100.00;98881.03;102280;1311;61348;-73
2021/11/22 07:32:28;;;;;;;76.90;47.70;;;;;;;5.97;100.00;98881.48;102282;1313;61301;-78
2021/11/22 07:34:56;;;;;;;75.90;47.50;;;;;;;6.00;100.00;98885.02;102375;1310;76404;-73
2021/11/22 07:37:24;;;;;;;79.50;49.00;;;;;;;6.01;100.00;98888.50;102343;1310;70394;-73
2021/11/22 07:39:52;;;;;;;72.50;45.30;;;;;;;6.02;100.00;98891.98;102408;1310;73529;-73
2021/11/22 07:42:19;;;;;;;66.40;42.80;;;;;;;6.06;100.00;98892.34;102373;1310;61386;-73
2021/11/22 07:44:45;;;;;;;69.60;43.80;;;;;;;6.09;100.00;98897.98;102357;1310;62248;-74
2021/11/22 07:47:12;;;;;;;71.70;45.10;;;;;;;6.10;100.00;98895.80;102377;1310;76578;-73
2021/11/22 07:49:39;;;;;;;71.50;42.40;;;;;;;6.12;100.00;98896.60;102294;1310;69587;-73
2021/11/22 07:52:07;;;;;;;69.50;43.40;;;;;;;6.13;100.00;98897.97;102349;1310;73260;-74
2021/11/22 07:54:34;;;;;;;78.10;44.90;;;;;;;6.13;100.00;98905.53;102111;1313;61367;-74
2021/11/22 07:57:00;;;;;;;71.00;43.70;;;;;;;6.13;100.00;98911.02;102134;1313;61667;-78
2021/11/22 07:59:27;;;;;;;73.40;43.90;;;;;;;6.13;100.00;98911.52;102616;1310;74940;-77
2021/11/22 08:01:54;;;;;;;73.30;43.80;;;;;;;6.15;100.00;98910.35;102445;1310;69528;-78
2021/11/22 08:04:20;;;;;;;73.70;43.30;;;;;;;6.20;100.00;98914.77;102223;1313;72947;-84
2021/11/22 08:06:50;;;;;;;71.40;43.70;;;;;;;6.21;100.00;98914.86;102799;1310;61364;-83
2021/11/22 08:09:30;;;;;;;69.10;41.60;;;;;;;6.24;100.00;98916.83;102921;1310;61315;-83
2021/11/22 08:14:33;;;;;;;75.40;45.00;;;;;;;6.27;100.00;98923.57;102416;1310;66887;-80
2021/11/22 08:17:00;;;;;;;76.80;45.20;;;;;;;6.28;100.00;98926.65;102542;1310;73952;-83
2021/11/22 08:19:27;;;;;;;76.80;45.60;;;;;;;6.30;100.00;98926.38;102851;1310;61428;-78
2021/11/22 08:21:53;;;;;;;76.40;47.40;;;;;;;6.31;100.00;98930.73;102559;1311;61418;-86
2021/11/22 08:24:24;;;;;;;78.80;46.50;;;;;;;6.32;100.00;98937.20;102486;1317;74886;-82
2021/11/22 08:26:52;;;;;;;80.40;44.90;;;;;;;6.33;100.00;98937.20;102711;1311;70317;-83
2021/11/22 08:29:18;;;;;;;82.20;47.80;;;;;;;6.32;100.00;98941.25;103035;1311;73504;-85
2021/11/22 08:31:46;;;;;;;81.20;47.80;;;;;;;6.32;100.00;98944.27;102944;1310;61364;-73
2021/11/22 08:34:13;;;;;;;78.10;46.00;;;;;;;6.33;100.00;98943.91;102231;1313;61587;-72
2021/11/22 08:36:39;;;;;;;82.00;47.60;;;;;;;6.33;100.00;98942.46;102660;1311;75435;-71
2021/11/22 08:39:06;;;;;;;81.50;49.80;;;;;;;6.35;100.00;98945.88;102482;1310;69671;-71
2021/11/22 08:41:33;;;;;;;80.00;46.10;;;;;;;6.38;100.00;98952.42;102527;1310;73370;-71
2021/11/22 08:44:00;;;;;;;81.20;46.70;;;;;;;6.41;100.00;98952.70;102497;1311;61409;-71
2021/11/22 08:46:28;;;;;;;74.80;45.00;;;;;;;6.39;100.00;98956.80;102648;1317;62205;-72
2021/11/22 08:48:55;;;;;;;78.00;46.00;;;;;;;6.37;100.00;98962.73;102375;1314;75991;-71
2021/11/22 08:51:21;;;;;;;79.80;46.30;;;;;;;6.35;100.00;98959.13;102845;1310;70207;-71
2021/11/22 08:53:48;;;;;;;71.40;44.70;;;;;;;6.34;100.00;98961.64;102721;1310;74451;-69
2021/11/22 08:56:14;;;;;;;76.90;45.50;;;;;;;6.34;100.00;98962.70;103105;1310;61297;-70
2021/11/22 08:58:41;;;;;;;72.80;43.00;;;;;;;6.33;100.00;98961.31;104707;1310;61308;-70
2021/11/22 09:01:08;;;;;;;78.30;44.50;;;;;;;6.33;100.00;98960.64;104198;1310;75427;-72
2021/11/22 09:03:35;;;;;;;69.30;38.50;;;;;;;6.35;100.00;98964.08;104077;1311;69459;-72
2021/11/22 09:06:02;;;;;;;63.00;38.30;;;;;;;6.35;100.00;98967.41;103600;1318;71721;-70
2021/11/22 09:08:29;;;;;;;65.80;38.80;;;;;;;6.34;100.00;98969.91;103154;1314;61292;-71
2021/11/22 09:10:55;;;;;;;64.70;38.90;;;;;;;6.33;100.00;98969.26;102476;1310;61404;-71
2021/11/22 09:13:22;;;;;;;69.20;39.60;;;;;;;6.35;100.00;98970.44;102473;1310;75365;-70
2021/11/22 09:15:49;;;;;;;74.80;41.00;;;;;;;6.38;100.00;98969.92;102488;1311;68980;-72
2021/11/22 09:18:16;;;;;;;69.80;38.10;;;;;;;6.41;100.00;98969.42;102468;1311;73480;-72
2021/11/22 09:20:43;;;;;;;66.00;38.20;;;;;;;6.42;100.00;98972.20;102289;1310;61386;-71
2021/11/22 09:23:11;;;;;;;73.40;40.90;;;;;;;6.42;100.00;98973.45;102367;1311;61386;-72
2021/11/22 09:25:38;;;;;;;65.20;37.60;;;;;;;6.42;100.00;98974.85;102308;1310;76254;-71
2021/11/22 09:28:05;;;;;;;69.40;39.90;;;;;;;6.42;100.00;98981.71;102296;1311;70624;-71
2021/11/22 09:30:32;;;;;;;66.50;38.20;;;;;;;6.42;100.00;98982.42;102307;1314;74793;-71
2021/11/22 09:32:58;;;;;;;61.10;37.40;;;;;;;6.42;100.00;98981.58;102304;1311;61402;-71
2021/11/22 09:35:26;;;;;;;65.60;38.30;;;;;;;6.40;100.00;98977.25;102282;1314;61303;-71
2021/11/22 09:37:54;;;;;;;60.90;37.70;;;;;;;6.43;100.00;98977.65;102289;1310;75770;-70
2021/11/22 09:40:21;;;;;;;60.50;36.70;;;;;;;6.43;100.00;98981.35;102281;1313;69596;-71
2021/11/22 09:42:48;;;;;;;65.30;37.50;;;;;;;6.42;100.00;98979.79;102389;1311;72503;-71
2021/11/22 09:45:16;;;;;;;62.30;35.80;;;;;;;6.39;100.00;98983.30;102450;1314;61296;-71
2021/11/22 09:47:43;;;;;;;61.60;36.80;;;;;;;6.36;100.00;98984.63;102428;1316;61235;-71
2021/11/22 09:50:10;;;;;;;68.00;39.60;;;;;;;6.36;100.00;98982.91;102472;1313;74560;-72
2021/11/22 09:52:36;;;;;;;65.30;41.00;;;;;;;6.34;100.00;98987.08;102351;1310;68988;-72
2021/11/22 09:55:05;;;;;;;50.60;33.10;;;;;;;6.34;100.00;98986.00;102315;1310;73596;-71
2021/11/22 09:57:31;;;;;;;53.90;32.00;;;;;;;6.33;100.00;98984.98;101942;1313;61431;-71
2021/11/22 09:59:58;;;;;;;57.30;35.40;;;;;;;6.32;100.00;98982.06;102306;1314;62138;-70
2021/11/22 10:02:40;;;;;;;47.10;29.70;;;;;;;6.32;100.00;98983.61;102315;1316;75496;-71
2021/11/22 10:05:33;;;;;;;34.10;20.80;;;;;;;6.33;100.00;98986.41;102291;1310;69622;-72
2021/11/22 10:08:07;;;;;;;22.00;13.60;;;;;;;6.27;100.00;98988.84;102252;1313;73560;-72
2021/11/22 10:10:44;;;;;;;26.00;14.30;;;;;;;6.22;100.00;98986.80;101899;1317;61424;-72
2021/11/22 10:13:21;;;;;;;19.90;14.80;;;;;;;6.16;100.00;98992.52;102334;1310;61327;-72
2021/11/22 10:15:49;;;;;;;20.40;13.90;;;;;;;6.15;100.00;98996.97;102285;1310;75418;-71
2021/11/22 10:18:23;;;;;;;21.20;15.80;;;;;;;6.15;100.00;98997.84;102324;1314;69553;-71
2021/11/22 10:20:50;;;;;;;18.80;12.30;;;;;;;6.16;100.00;98995.55;102344;1310;72657;-71
2021/11/22 10:23:29;;;;;;;21.90;14.60;;;;;;;6.09;100.00;98994.63;102351;1310;61405;-71
2021/11/22 10:25:57;;;;;;;19.10;14.70;;;;;;;6.09;100.00;99002.74;101909;1317;61398;-70
2021/11/22 10:28:29;;;;;;;21.20;15.50;;;;;;;6.09;100.00;99001.70;102410;1310;75165;-71
2021/11/22 10:31:03;;;;;;;19.10;13.70;;;;;;;6.09;100.00;98998.34;102403;1313;68888;-71
2021/11/22 10:33:33;;;;;;;22.80;16.20;;;;;;;6.08;100.00;99004.38;102397;1311;73099;-70
2021/11/22 10:36:05;;;;;;;21.00;14.90;;;;;;;6.09;100.00;99006.65;102336;1310;61279;-70
2021/11/22 10:38:34;;;;;;;24.50;15.70;;;;;;;6.13;100.00;99002.89;102362;1311;61859;-71
2021/11/22 10:41:11;;;;;;;21.70;14.20;;;;;;;6.19;100.00;99010.20;102425;1313;75972;-70
2021/11/22 10:43:43;;;;;;;21.20;13.40;;;;;;;6.19;100.00;99012.67;102335;1317;70561;-71
2021/11/22 10:46:11;;;;;;;18.90;13.40;;;;;;;6.15;100.00;99016.23;102280;1317;73536;-70
2021/11/22 10:48:38;;;;;;;16.00;10.20;;;;;;;6.12;100.00;99017.61;102552;1314;61568;-70
2021/11/22 10:51:16;;;;;;;17.90;12.50;;;;;;;6.10;100.00;99024.74;102578;1317;61371;-70
2021/11/22 10:53:46;;;;;;;14.10;10.80;;;;;;;6.11;100.00;99023.48;102276;1313;75813;-70
2021/11/22 10:56:15;;;;;;;14.00;10.60;;;;;;;6.11;100.00;99023.98;102351;1316;70385;-71
2021/11/22 10:58:57;;;;;;;16.10;12.20;;;;;;;6.13;100.00;99032.20;101914;1318;72991;-73
2021/11/22 11:01:31;;;;;;;16.10;11.60;;;;;;;6.15;100.00;99034.57;102498;1314;61407;-70
2021/11/22 11:04:25;;;;;;;19.40;12.80;;;;;;;6.13;100.00;99041.20;102468;1311;62102;-71
2021/11/22 11:07:06;;;;;;;18.00;13.60;;;;;;;6.15;100.00;99035.79;102313;1311;74514;-71
2021/11/22 11:09:52;;;;;;;14.30;10.10;;;;;;;6.20;100.00;99039.10;102553;1310;69899;-71
2021/11/22 11:12:21;;;;;;;15.80;9.70;;;;;;;6.19;100.00;99038.27;102537;1310;73544;-70
2021/11/22 11:14:50;;;;;;;14.10;9.10;;;;;;;6.17;100.00;99040.14;102485;1310;61399;-69
2021/11/22 11:17:36;;;;;;;10.80;7.30;;;;;;;6.13;100.00;99044.02;102451;1310;61715;-70
2021/11/22 11:20:09;;;;;;;14.90;8.10;;;;;;;6.06;100.00;99045.73;102003;1314;74967;-72
2021/11/22 11:22:37;;;;;;;13.00;8.30;;;;;;;6.03;100.00;99045.04;102359;1317;70680;-71